Aviation Digital Data Service (ADDS)

Output produced by METARs form (0543 UTC 20 September 2017)
found at http://www.aviationweather.gov/adds/metars/
 
TAF LOWW 200515Z 2006/2112 32020KT 9999 -RA FEW010 SCT014 BKN035 TX16/2112Z TN10/2006Z 
     PROB40 
     TEMPO 2006/2012 33025G35KT 8000 RA SCT010 BKN014 
     FM201600 32012KT CAVOK 
     TEMPO 2016/2108 33018KT 9999 FEW030 BKN060 
     TEMPO 2108/2112 32015G25KT 9999 FEW040 SCT100